Time;durP1;ratioP1;P1;durP2;ratioP2;P2;SDS_P1;SDS_P2;PMS_P1;PMS_P2;Temp;Humidity;BMP_temperature;BMP_pressure;BME280_temperature;BME280_humidity;BME280_pressure;Samples;Min_cycle;Max_cycle;Signal;HPM_P1;HPM_P2
2021/03/02 00:00:04;;;;;;;13.38;6.60;;;6.20;61.40;;;;;;5039827;28;20329;-72
2021/03/02 00:02:31;;;;;;;10.23;6.65;;;6.10;62.20;;;;;;5039620;28;20425;-72
2021/03/02 00:04:57;;;;;;;10.85;6.05;;;6.10;62.00;;;;;;5038541;28;20025;-72
2021/03/02 00:07:26;;;;;;;10.60;5.88;;;6.10;62.40;;;;;;5039675;28;20051;-72
2021/03/02 00:09:52;;;;;;;10.05;5.80;;;6.10;62.60;;;;;;5039833;28;20021;-72
2021/03/02 00:12:18;;;;;;;8.05;5.07;;;6.10;63.10;;;;;;5039520;28;20018;-72
2021/03/02 00:14:44;;;;;;;9.10;5.47;;;6.10;63.30;;;;;;5039609;28;20025;-72
2021/03/02 00:17:39;;;;;;;9.95;5.55;;;6.10;63.50;;;;;;5039486;28;20037;-72
2021/03/02 00:20:09;;;;;;;11.73;5.63;;;6.10;63.70;;;;;;5038780;28;20077;-72
2021/03/02 00:22:44;;;;;;;8.82;5.13;;;6.10;63.90;;;;;;5039311;28;20040;-72
2021/03/02 00:25:12;;;;;;;12.10;5.60;;;6.10;64.20;;;;;;5039544;28;20033;-72
2021/03/02 00:27:38;;;;;;;8.60;5.32;;;6.00;64.20;;;;;;5039522;28;20321;-72
2021/03/02 00:30:05;;;;;;;15.13;6.00;;;5.90;64.00;;;;;;5039534;28;20076;-72
2021/03/02 00:32:32;;;;;;;9.80;5.82;;;5.90;64.20;;;;;;5039103;28;20037;-72
2021/03/02 00:34:58;;;;;;;8.02;5.45;;;5.80;64.40;;;;;;5039325;28;20071;-72
2021/03/02 00:37:24;;;;;;;9.00;5.25;;;5.70;64.40;;;;;;5039258;28;20049;-72
2021/03/02 00:39:50;;;;;;;9.40;5.70;;;5.70;64.40;;;;;;5039288;28;20413;-72
2021/03/02 00:42:15;;;;;;;9.65;5.57;;;5.60;64.00;;;;;;5038951;28;20100;-72
2021/03/02 00:44:41;;;;;;;10.10;5.30;;;5.70;63.40;;;;;;5038987;28;20314;-72
2021/03/02 00:47:07;;;;;;;7.22;4.82;;;5.70;62.70;;;;;;5039168;28;20030;-72
2021/03/02 00:49:33;;;;;;;8.57;5.18;;;5.70;62.70;;;;;;5039138;28;20017;-72
2021/03/02 00:51:59;;;;;;;7.40;5.03;;;5.80;62.30;;;;;;5038728;28;20051;-72
2021/03/02 00:54:24;;;;;;;9.40;5.05;;;5.70;61.20;;;;;;5038836;28;20104;-72
2021/03/02 00:56:50;;;;;;;12.55;5.47;;;5.80;60.10;;;;;;5038770;28;20032;-72
2021/03/02 00:59:16;;;;;;;6.57;4.57;;;5.90;58.60;;;;;;5038719;28;20349;-72
2021/03/02 01:01:42;;;;;;;5.82;4.45;;;6.20;55.60;;;;;;5038908;28;20033;-72
2021/03/02 01:04:07;;;;;;;8.68;4.28;;;6.50;54.30;;;;;;5037415;28;20031;-72
2021/03/02 01:06:33;;;;;;;10.35;4.50;;;6.80;53.60;;;;;;5038899;28;20057;-72
2021/03/02 01:08:59;;;;;;;10.32;4.10;;;7.00;54.10;;;;;;5038583;28;20026;-72
2021/03/02 01:11:24;;;;;;;8.02;4.07;;;7.10;54.00;;;;;;5038523;28;20017;-72
2021/03/02 01:13:51;;;;;;;7.20;4.05;;;7.10;54.10;;;;;;5038382;28;20298;-72
2021/03/02 01:16:16;;;;;;;9.82;4.78;;;7.20;54.20;;;;;;5038929;28;20104;-72
2021/03/02 01:18:42;;;;;;;7.97;4.75;;;7.30;54.20;;;;;;5038238;28;20413;-72
2021/03/02 01:21:08;;;;;;;7.50;5.05;;;7.30;54.50;;;;;;5038342;28;20056;-72
2021/03/02 01:23:35;;;;;;;8.23;4.88;;;7.30;54.30;;;;;;5038334;28;20029;-72
2021/03/02 01:26:01;;;;;;;6.90;4.57;;;7.40;54.90;;;;;;5038333;28;20025;-72
2021/03/02 01:28:26;;;;;;;9.40;4.60;;;7.40;55.20;;;;;;5038416;28;20096;-72
2021/03/02 01:30:52;;;;;;;7.53;4.53;;;7.40;55.10;;;;;;5038345;28;20045;-72
2021/03/02 01:33:19;;;;;;;7.63;5.13;;;7.40;55.00;;;;;;5038021;28;20372;-72
2021/03/02 01:35:45;;;;;;;8.30;4.85;;;7.40;55.40;;;;;;5038016;28;20463;-72
2021/03/02 01:38:10;;;;;;;8.60;4.85;;;7.40;54.80;;;;;;5037947;28;20026;-72
2021/03/02 01:40:36;;;;;;;8.00;5.30;;;7.40;55.10;;;;;;5038212;28;20326;-72
2021/03/02 01:43:02;;;;;;;8.65;4.75;;;7.30;55.20;;;;;;5037774;28;20030;-72
2021/03/02 01:45:27;;;;;;;7.13;4.90;;;7.10;56.00;;;;;;5037672;28;20377;-72
2021/03/02 01:47:53;;;;;;;9.13;5.22;;;6.90;56.70;;;;;;5037801;28;20026;-72
2021/03/02 01:50:21;;;;;;;6.50;4.20;;;6.60;57.60;;;;;;5037716;28;20410;-72
2021/03/02 01:52:48;;;;;;;9.38;5.25;;;6.30;58.30;;;;;;5037604;28;20463;-72
2021/03/02 01:55:16;;;;;;;7.53;4.68;;;6.10;59.30;;;;;;5037933;28;20035;-72
2021/03/02 01:57:42;;;;;;;8.75;5.22;;;5.90;59.60;;;;;;5037698;28;20154;-72
2021/03/02 02:00:17;;;;;;;7.72;4.70;;;5.80;59.90;;;;;;5037531;28;20100;-72
2021/03/02 02:02:49;;;;;;;14.82;5.03;;;5.70;60.00;;;;;;5037704;28;20036;-72
2021/03/02 02:05:15;;;;;;;8.35;4.30;;;5.60;60.10;;;;;;5037512;28;20034;-72
2021/03/02 02:07:43;;;;;;;8.15;4.80;;;5.60;59.90;;;;;;5037427;28;20026;-72
2021/03/02 02:10:09;;;;;;;7.35;4.30;;;5.50;60.40;;;;;;5037600;28;20406;-72
2021/03/02 02:12:37;;;;;;;7.53;4.90;;;5.50;60.90;;;;;;5037390;28;20025;-72
2021/03/02 02:15:21;;;;;;;11.48;5.72;;;5.40;61.10;;;;;;5037229;28;20037;-72
2021/03/02 02:18:08;;;;;;;7.90;4.78;;;5.40;60.90;;;;;;5037099;28;20049;-72
2021/03/02 02:20:52;;;;;;;9.50;4.75;;;5.40;61.00;;;;;;5037300;28;20025;-72
2021/03/02 02:23:37;;;;;;;10.95;4.80;;;5.40;61.10;;;;;;5037111;28;20029;-72
2021/03/02 02:26:33;;;;;;;8.25;5.25;;;5.40;61.40;;;;;;5037342;28;20044;-72
2021/03/02 02:29:01;;;;;;;8.10;5.07;;;5.40;61.30;;;;;;5037341;28;20033;-72
2021/03/02 02:31:28;;;;;;;6.75;4.55;;;5.40;61.30;;;;;;5036969;28;20248;-72
2021/03/02 02:33:55;;;;;;;9.82;4.90;;;5.40;61.30;;;;;;5037202;28;20021;-72
2021/03/02 02:36:23;;;;;;;8.15;5.50;;;5.40;61.30;;;;;;5035900;28;20024;-72
2021/03/02 02:38:53;;;;;;;10.00;5.20;;;5.40;61.40;;;;;;5037199;28;20354;-72
2021/03/02 02:41:23;;;;;;;11.00;5.38;;;5.40;61.40;;;;;;5036895;28;20051;-72
2021/03/02 02:43:50;;;;;;;10.50;4.75;;;5.40;61.70;;;;;;5036672;28;20053;-72
2021/03/02 02:46:16;;;;;;;8.95;4.60;;;5.30;61.90;;;;;;5037309;28;20127;-72
2021/03/02 02:48:44;;;;;;;9.07;4.55;;;5.30;61.80;;;;;;5036737;28;20030;-72
2021/03/02 02:51:11;;;;;;;8.95;5.25;;;5.40;61.60;;;;;;5036752;28;20017;-72
2021/03/02 02:53:39;;;;;;;8.93;5.30;;;5.50;61.30;;;;;;5036909;28;20049;-72
2021/03/02 02:56:06;;;;;;;7.10;4.82;;;5.50;61.20;;;;;;5036772;28;20397;-72
2021/03/02 02:58:38;;;;;;;9.57;5.35;;;5.50;61.40;;;;;;5036694;28;20029;-72
2021/03/02 03:01:05;;;;;;;11.18;5.18;;;5.50;61.40;;;;;;5036728;28;20048;-72
2021/03/02 03:03:35;;;;;;;10.15;5.30;;;5.60;62.00;;;;;;5036532;28;20067;-72
2021/03/02 03:06:07;;;;;;;10.65;5.50;;;5.50;62.00;;;;;;5036630;28;20026;-72
2021/03/02 03:08:34;;;;;;;8.77;5.00;;;5.50;62.50;;;;;;5036660;28;20034;-72
2021/03/02 03:11:02;;;;;;;8.63;5.53;;;5.40;62.70;;;;;;5036714;28;20029;-72
2021/03/02 03:13:36;;;;;;;8.50;5.22;;;5.40;62.60;;;;;;5036374;28;20361;-72
2021/03/02 03:16:06;;;;;;;9.90;5.40;;;5.40;63.30;;;;;;5037054;28;20064;-72
2021/03/02 03:18:36;;;;;;;9.38;5.00;;;5.40;63.70;;;;;;5036262;28;20045;-74
2021/03/02 03:21:02;;;;;;;8.90;4.88;;;5.30;63.50;;;;;;5036480;28;20329;-72
2021/03/02 03:23:30;;;;;;;8.63;5.03;;;5.30;64.60;;;;;;5036622;28;20317;-72
2021/03/02 03:25:56;;;;;;;10.48;5.43;;;5.20;64.30;;;;;;5036443;28;20036;-72
2021/03/02 03:28:24;;;;;;;9.27;5.35;;;5.20;64.50;;;;;;5040111;28;20021;-72
2021/03/02 03:30:51;;;;;;;11.43;5.15;;;5.10;64.80;;;;;;5040346;28;20160;-72
2021/03/02 03:33:19;;;;;;;8.05;5.20;;;5.10;65.00;;;;;;5040235;28;20033;-72
2021/03/02 03:35:45;;;;;;;8.60;5.05;;;5.00;65.10;;;;;;5039283;28;20033;-72
2021/03/02 03:38:11;;;;;;;7.80;4.53;;;5.00;65.20;;;;;;5040217;28;20029;-72
2021/03/02 03:40:37;;;;;;;9.35;5.22;;;4.90;65.40;;;;;;5040462;28;20044;-72
2021/03/02 03:43:03;;;;;;;8.10;5.60;;;4.90;65.40;;;;;;5040173;28;20448;-72
2021/03/02 03:45:28;;;;;;;7.55;4.95;;;4.90;65.80;;;;;;5040631;28;20041;-72
2021/03/02 03:47:56;;;;;;;10.52;5.35;;;4.90;65.80;;;;;;5039058;28;20112;-72
2021/03/02 03:50:22;;;;;;;8.18;5.35;;;4.80;66.30;;;;;;5040013;28;20044;-72
2021/03/02 03:52:52;;;;;;;8.43;4.65;;;4.80;65.90;;;;;;5039872;28;20021;-72
2021/03/02 03:55:21;;;;;;;7.95;5.05;;;4.80;65.70;;;;;;5040164;28;20025;-72
2021/03/02 03:57:48;;;;;;;6.25;4.28;;;4.80;65.10;;;;;;5040155;28;20030;-72
2021/03/02 04:00:15;;;;;;;6.53;4.43;;;4.80;64.20;;;;;;5039862;28;20032;-72
2021/03/02 04:02:43;;;;;;;8.48;4.93;;;4.90;64.20;;;;;;5039635;28;20029;-72
2021/03/02 04:05:10;;;;;;;8.18;5.22;;;4.80;64.10;;;;;;5039674;28;20120;-72
2021/03/02 04:07:36;;;;;;;6.30;4.30;;;4.90;63.00;;;;;;5039599;28;20033;-72
2021/03/02 04:10:04;;;;;;;9.48;5.47;;;4.90;63.80;;;;;;5039899;28;20072;-72
2021/03/02 04:12:43;;;;;;;7.45;4.82;;;4.90;63.70;;;;;;5039823;28;20362;-72
2021/03/02 04:15:11;;;;;;;7.25;4.95;;;4.80;63.50;;;;;;5038624;28;20030;-74
2021/03/02 04:17:37;;;;;;;9.50;5.43;;;4.70;63.70;;;;;;5039258;28;20026;-75
2021/03/02 04:20:07;;;;;;;9.07;4.88;;;4.70;63.70;;;;;;5039411;28;20030;-74
2021/03/02 04:22:36;;;;;;;7.40;4.50;;;4.60;63.90;;;;;;5039515;28;20025;-75
2021/03/02 04:25:05;;;;;;;10.10;5.00;;;4.60;63.80;;;;;;5039254;28;20053;-72
2021/03/02 04:27:32;;;;;;;10.18;5.38;;;4.50;64.30;;;;;;5039297;28;20029;-72
2021/03/02 04:29:57;;;;;;;8.25;4.72;;;4.40;64.50;;;;;;5039331;28;20029;-72
2021/03/02 04:32:23;;;;;;;7.28;4.97;;;4.40;64.80;;;;;;5039187;28;20022;-72
2021/03/02 04:34:49;;;;;;;6.72;4.85;;;4.50;64.80;;;;;;5039360;28;20080;-72
2021/03/02 04:37:15;;;;;;;11.65;5.70;;;4.50;64.80;;;;;;5039014;28;20469;-72
2021/03/02 04:39:40;;;;;;;7.85;5.07;;;4.50;65.20;;;;;;5039117;28;20321;-72
2021/03/02 04:42:06;;;;;;;11.93;5.30;;;4.50;65.80;;;;;;5038966;28;20024;-72
2021/03/02 04:44:32;;;;;;;7.50;5.68;;;4.40;66.30;;;;;;5038950;28;20037;-72
2021/03/02 04:46:57;;;;;;;8.45;5.13;;;4.30;66.40;;;;;;5039169;28;20453;-72
2021/03/02 04:49:24;;;;;;;7.43;4.97;;;4.30;66.30;;;;;;5039144;28;20079;-72
2021/03/02 04:51:49;;;;;;;7.15;4.70;;;4.30;66.00;;;;;;5038816;28;20036;-72
2021/03/02 04:54:16;;;;;;;7.10;4.43;;;4.30;65.50;;;;;;5038772;28;20025;-72
2021/03/02 04:56:42;;;;;;;6.38;4.63;;;4.30;65.10;;;;;;5038780;28;20046;-72
2021/03/02 04:59:08;;;;;;;6.90;4.38;;;4.30;65.50;;;;;;5039055;28;20057;-72
2021/03/02 05:01:34;;;;;;;7.07;4.40;;;4.20;65.80;;;;;;5038690;28;20025;-72
2021/03/02 05:04:00;;;;;;;9.02;5.28;;;4.20;66.00;;;;;;5038559;28;20419;-72
2021/03/02 05:06:26;;;;;;;6.75;5.13;;;4.10;66.60;;;;;;5037611;28;20033;-72
2021/03/02 05:08:51;;;;;;;6.60;4.93;;;4.10;67.40;;;;;;5038848;28;20024;-72
2021/03/02 05:11:18;;;;;;;12.18;5.22;;;4.00;68.10;;;;;;5038504;28;20025;-72
2021/03/02 05:13:44;;;;;;;12.82;5.50;;;4.00;68.10;;;;;;5038430;28;20018;-72
2021/03/02 05:16:11;;;;;;;11.70;5.32;;;3.90;68.20;;;;;;5038874;28;20021;-72
2021/03/02 05:18:37;;;;;;;6.00;4.38;;;3.90;67.60;;;;;;5037180;28;20464;-72
2021/03/02 05:21:03;;;;;;;7.80;5.22;;;4.00;67.50;;;;;;5038607;28;20056;-72
2021/03/02 05:23:30;;;;;;;7.78;4.22;;;4.00;67.10;;;;;;5038195;28;20073;-72
2021/03/02 05:25:56;;;;;;;7.03;4.13;;;4.00;66.20;;;;;;5038377;28;20064;-72
2021/03/02 05:28:21;;;;;;;8.30;4.72;;;4.10;66.40;;;;;;5038182;28;20425;-72
2021/03/02 05:30:47;;;;;;;9.68;4.70;;;4.10;66.60;;;;;;5037109;28;20040;-72
2021/03/02 05:33:13;;;;;;;7.32;4.55;;;4.20;68.10;;;;;;5038275;28;20021;-72
2021/03/02 05:35:39;;;;;;;6.95;4.43;;;4.10;67.90;;;;;;5038183;28;20040;-72
2021/03/02 05:38:05;;;;;;;7.95;5.32;;;4.10;68.10;;;;;;5038251;28;20033;-72
2021/03/02 05:40:31;;;;;;;8.40;4.45;;;4.10;67.70;;;;;;5038254;28;20033;-72
2021/03/02 05:42:56;;;;;;;8.93;5.43;;;4.10;68.20;;;;;;5037827;28;20026;-72
2021/03/02 05:45:22;;;;;;;8.85;4.65;;;4.00;68.60;;;;;;5038144;28;20025;-72
2021/03/02 05:47:49;;;;;;;8.43;4.85;;;4.00;69.10;;;;;;5037820;28;20034;-71
2021/03/02 05:50:16;;;;;;;6.57;4.50;;;4.00;69.00;;;;;;5037205;28;20049;-72
2021/03/02 05:52:43;;;;;;;10.25;5.07;;;4.00;68.70;;;;;;5037649;28;20368;-72
2021/03/02 05:55:10;;;;;;;6.22;4.05;;;4.00;67.10;;;;;;5037721;28;20033;-72
2021/03/02 05:57:38;;;;;;;7.63;4.20;;;4.10;67.60;;;;;;5037650;28;20440;-72
2021/03/02 06:00:05;;;;;;;5.15;3.70;;;4.20;65.20;;;;;;5037535;28;20018;-72
2021/03/02 06:02:32;;;;;;;5.28;3.45;;;4.30;65.00;;;;;;5037459;28;20030;-72
2021/03/02 06:04:58;;;;;;;6.18;2.78;;;4.40;65.50;;;;;;5037781;28;20022;-72
2021/03/02 06:07:23;;;;;;;5.68;2.03;;;4.40;63.00;;;;;;5037731;28;20100;-72
2021/03/02 06:09:49;;;;;;;5.72;2.00;;;4.60;59.80;;;;;;5037551;28;20021;-72
2021/03/02 06:12:15;;;;;;;4.00;2.10;;;5.00;58.00;;;;;;5037238;28;20029;-72
2021/03/02 06:14:41;;;;;;;4.50;2.83;;;5.40;57.00;;;;;;5037379;28;20074;-72
2021/03/02 06:17:07;;;;;;;5.30;2.60;;;5.80;56.50;;;;;;5037424;28;20046;-72
2021/03/02 06:19:37;;;;;;;3.30;2.35;;;6.00;56.00;;;;;;5037083;28;20049;-72
2021/03/02 06:22:04;;;;;;;7.90;3.42;;;6.10;56.60;;;;;;5037088;28;20084;-72
2021/03/02 06:24:36;;;;;;;8.05;3.38;;;6.30;56.40;;;;;;5037111;28;20110;-72
2021/03/02 06:27:11;;;;;;;6.05;3.13;;;6.30;57.80;;;;;;5037179;28;20030;-72
2021/03/02 06:29:40;;;;;;;5.85;3.63;;;6.40;57.20;;;;;;5036057;28;20021;-72
2021/03/02 06:32:07;;;;;;;5.65;3.30;;;6.50;58.00;;;;;;5036946;28;20481;-72
2021/03/02 06:34:33;;;;;;;9.63;5.53;;;6.60;57.20;;;;;;5037257;28;20033;-72
2021/03/02 06:37:04;;;;;;;5.18;3.67;;;6.60;58.40;;;;;;5037024;28;20294;-72
2021/03/02 06:39:35;;;;;;;9.73;4.53;;;6.70;58.80;;;;;;5036995;28;20104;-72
2021/03/02 06:42:21;;;;;;;9.00;4.90;;;6.70;60.20;;;;;;5037058;28;20033;-72
2021/03/02 06:44:49;;;;;;;12.00;5.00;;;6.80;60.10;;;;;;5036879;28;20108;-72
2021/03/02 06:47:36;;;;;;;8.90;4.72;;;6.80;62.50;;;;;;5037000;28;20030;-72
2021/03/02 06:50:23;;;;;;;7.50;4.55;;;6.90;60.60;;;;;;5036824;28;20025;-72
2021/03/02 06:52:48;;;;;;;7.28;4.90;;;7.10;60.10;;;;;;5036728;28;20029;-72
2021/03/02 06:55:16;;;;;;;8.90;5.22;;;7.20;61.00;;;;;;5037013;28;20032;-72
2021/03/02 06:57:44;;;;;;;8.75;4.70;;;7.30;60.70;;;;;;5036635;28;20037;-72
2021/03/02 07:00:10;;;;;;;6.50;4.72;;;7.30;61.00;;;;;;5036897;28;20079;-72
2021/03/02 07:02:37;;;;;;;9.05;5.18;;;7.30;60.00;;;;;;5035702;28;20027;-72
2021/03/02 07:05:09;;;;;;;6.63;4.75;;;7.40;60.90;;;;;;5036587;28;20026;-72
2021/03/02 07:07:35;;;;;;;8.15;5.10;;;7.40;59.20;;;;;;5036544;28;20422;-72
2021/03/02 07:10:03;;;;;;;7.07;4.75;;;7.50;58.80;;;;;;5036588;28;20021;-72
2021/03/02 07:12:34;;;;;;;8.20;4.85;;;7.60;59.20;;;;;;5036507;28;20018;-72
2021/03/02 07:15:20;;;;;;;6.35;4.15;;;7.60;58.10;;;;;;5036704;28;20313;-72
2021/03/02 07:17:49;;;;;;;6.72;4.20;;;7.70;57.10;;;;;;5036428;28;20060;-72
2021/03/02 07:20:17;;;;;;;7.22;4.32;;;7.70;59.70;;;;;;5036784;28;20068;-72
2021/03/02 07:22:50;;;;;;;5.72;4.10;;;7.80;58.50;;;;;;5036684;28;20029;-72
2021/03/02 07:25:19;;;;;;;6.38;3.83;;;7.90;58.70;;;;;;5036879;28;20017;-72
2021/03/02 07:27:48;;;;;;;5.95;3.50;;;8.00;58.30;;;;;;5036551;28;20469;-72
2021/03/02 07:30:16;;;;;;;5.50;3.47;;;8.10;58.10;;;;;;5036690;28;20029;-72
2021/03/02 07:32:43;;;;;;;6.45;3.50;;;8.20;56.30;;;;;;5035259;28;20026;-72
2021/03/02 07:35:10;;;;;;;6.22;3.50;;;8.30;55.60;;;;;;5036424;28;20028;-72
2021/03/02 07:37:36;;;;;;;5.75;3.20;;;8.40;54.60;;;;;;5036439;28;20030;-72
2021/03/02 07:40:10;;;;;;;5.78;4.22;;;8.50;53.20;;;;;;5036323;28;20037;-72
2021/03/02 07:42:38;;;;;;;6.60;3.75;;;8.60;53.20;;;;;;5036566;28;20040;-72
2021/03/02 07:45:14;;;;;;;5.05;2.97;;;8.70;52.90;;;;;;5036380;28;20489;-72
2021/03/02 07:47:53;;;;;;;5.55;2.88;;;8.80;55.30;;;;;;5036466;28;20414;-72
2021/03/02 07:50:25;;;;;;;7.47;3.55;;;8.80;52.30;;;;;;5036344;28;20025;-72
2021/03/02 07:53:15;;;;;;;5.47;3.30;;;8.90;52.80;;;;;;5036407;28;20037;-72
2021/03/02 07:55:42;;;;;;;7.10;3.55;;;9.00;52.20;;;;;;5036405;28;20030;-72
2021/03/02 07:58:17;;;;;;;9.75;3.50;;;9.10;51.80;;;;;;5036125;28;20156;-72
2021/03/02 08:00:48;;;;;;;7.07;3.90;;;9.20;51.40;;;;;;5036135;28;20051;-72
2021/03/02 08:03:25;;;;;;;7.18;3.58;;;9.30;51.30;;;;;;5035998;28;20029;-72
2021/03/02 08:05:58;;;;;;;6.90;3.60;;;9.40;54.20;;;;;;5036163;28;20056;-72
2021/03/02 08:08:24;;;;;;;5.18;3.80;;;9.50;51.80;;;;;;5036106;28;20030;-72
2021/03/02 08:10:55;;;;;;;6.07;4.18;;;9.60;54.70;;;;;;5036298;28;20155;-72
2021/03/02 08:13:40;;;;;;;5.60;3.67;;;9.80;54.50;;;;;;5037932;28;20025;-72
2021/03/02 08:16:09;;;;;;;7.60;4.00;;;9.90;52.90;;;;;;5040050;28;20029;-72
2021/03/02 08:18:36;;;;;;;8.60;4.07;;;10.00;51.40;;;;;;5039356;28;20054;-72
2021/03/02 08:21:09;;;;;;;6.57;3.92;;;10.00;53.00;;;;;;5039486;28;20025;-72
2021/03/02 08:23:57;;;;;;;4.95;3.22;;;10.20;53.30;;;;;;5039375;28;20048;-72
2021/03/02 08:26:34;;;;;;;6.45;3.47;;;10.50;53.00;;;;;;5039313;28;20319;-72
2021/03/02 08:29:05;;;;;;;3.95;3.20;;;11.00;51.80;;;;;;5039523;28;20362;-72
2021/03/02 08:31:32;;;;;;;7.03;4.00;;;11.50;48.50;;;;;;5039512;28;20025;-72
2021/03/02 08:34:02;;;;;;;6.43;3.53;;;11.80;47.50;;;;;;5039289;28;20028;-72
2021/03/02 08:36:28;;;;;;;5.45;3.45;;;12.50;46.50;;;;;;5039300;28;20340;-72
2021/03/02 08:38:55;;;;;;;5.75;3.45;;;13.40;46.60;;;;;;5039130;28;20025;-72
2021/03/02 08:41:31;;;;;;;5.28;3.10;;;14.20;44.60;;;;;;5039221;28;20040;-72
2021/03/02 08:43:58;;;;;;;4.97;3.53;;;14.90;42.60;;;;;;5039016;28;20025;-72
2021/03/02 08:46:25;;;;;;;6.32;3.28;;;15.70;40.20;;;;;;5039551;28;20028;-72
2021/03/02 08:48:51;;;;;;;4.90;3.50;;;16.30;40.10;;;;;;5039255;28;20040;-72
2021/03/02 08:51:22;;;;;;;4.25;3.10;;;16.60;38.40;;;;;;5038954;28;20022;-72
2021/03/02 08:53:49;;;;;;;7.47;2.83;;;16.70;40.60;;;;;;5038865;28;20112;-72
2021/03/02 08:56:15;;;;;;;3.63;2.80;;;16.50;39.30;;;;;;5039047;28;20048;-72
2021/03/02 08:58:42;;;;;;;5.25;2.88;;;16.40;41.00;;;;;;5039062;28;20029;-72
2021/03/02 09:01:35;;;;;;;6.53;3.28;;;16.30;39.10;;;;;;5038797;28;20028;-72
2021/03/02 09:04:14;;;;;;;6.40;3.13;;;16.20;41.10;;;;;;5038315;28;20056;-72
2021/03/02 09:06:45;;;;;;;4.10;3.17;;;16.50;38.70;;;;;;5038939;28;20025;-72
2021/03/02 09:09:13;;;;;;;4.78;3.40;;;17.10;40.00;;;;;;5038628;28;20402;-72
2021/03/02 09:11:50;;;;;;;8.30;4.00;;;17.60;39.30;;;;;;5038788;28;20104;-72
2021/03/02 09:14:42;;;;;;;6.63;4.45;;;17.90;37.20;;;;;;5037350;28;20061;-72
2021/03/02 09:17:08;;;;;;;6.70;4.75;;;18.30;37.50;;;;;;5038234;28;20045;-72
2021/03/02 09:19:34;;;;;;;6.47;4.60;;;18.50;36.80;;;;;;5038296;28;20099;-72
2021/03/02 09:22:09;;;;;;;6.55;3.92;;;18.50;37.00;;;;;;5038531;28;20321;-72
2021/03/02 09:24:38;;;;;;;6.28;4.50;;;18.50;36.70;;;;;;5037653;28;20037;-72
2021/03/02 09:27:06;;;;;;;4.70;3.85;;;18.60;37.20;;;;;;5038283;28;20072;-72
2021/03/02 09:29:43;;;;;;;5.75;3.45;;;18.80;36.40;;;;;;5038225;28;20022;-72
2021/03/02 09:32:11;;;;;;;7.90;4.32;;;19.10;36.70;;;;;;5038263;28;20033;-72
2021/03/02 09:34:45;;;;;;;7.05;3.75;;;19.10;37.20;;;;;;5038113;28;20053;-72
2021/03/02 09:37:16;;;;;;;5.18;3.42;;;18.90;37.60;;;;;;5038463;28;20033;-72
2021/03/02 09:40:10;;;;;;;4.00;3.10;;;19.20;36.20;;;;;;5038034;28;20037;-72
2021/03/02 09:42:38;;;;;;;7.07;3.85;;;19.30;36.00;;;;;;5038178;28;20040;-72
2021/03/02 09:45:11;;;;;;;5.57;4.25;;;19.40;37.10;;;;;;5037759;28;20029;-72
2021/03/02 09:47:38;;;;;;;6.30;4.65;;;19.60;37.10;;;;;;5036759;28;20445;-72
2021/03/02 09:50:04;;;;;;;5.65;3.90;;;19.90;36.80;;;;;;5037819;28;20441;-72
2021/03/02 09:52:53;;;;;;;10.82;5.13;;;19.90;36.10;;;;;;5037684;28;20029;-72
2021/03/02 09:55:19;;;;;;;6.10;4.30;;;19.60;36.60;;;;;;5038223;28;20025;-72
2021/03/02 09:58:00;;;;;;;6.65;4.57;;;19.70;36.60;;;;;;5037666;28;20043;-72
2021/03/02 10:00:29;;;;;;;7.78;5.13;;;19.80;36.70;;;;;;5037626;28;20055;-72
2021/03/02 10:02:56;;;;;;;6.50;5.13;;;19.40;36.50;;;;;;5036485;28;20116;-72
2021/03/02 10:05:36;;;;;;;8.52;5.22;;;19.10;38.60;;;;;;5037448;28;20080;-72
2021/03/02 10:08:28;;;;;;;7.10;4.72;;;19.10;37.60;;;;;;5037632;28;20100;-72
2021/03/02 10:11:11;;;;;;;7.43;4.72;;;19.40;38.80;;;;;;5036606;28;20048;-72
2021/03/02 10:13:37;;;;;;;7.90;4.63;;;20.10;37.20;;;;;;5039849;28;20036;-72
2021/03/02 10:16:26;;;;;;;8.57;5.13;;;20.40;35.10;;;;;;5057217;28;20028;-72
2021/03/02 10:19:12;;;;;;;6.57;4.85;;;20.10;36.90;;;;;;5057022;28;20065;-72
2021/03/02 10:21:56;;;;;;;6.57;4.57;;;19.80;34.70;;;;;;5057293;28;20108;-72
2021/03/02 10:24:30;;;;;;;9.00;4.88;;;20.00;36.70;;;;;;5057280;28;20029;-72
2021/03/02 10:27:00;;;;;;;6.70;5.30;;;20.50;36.80;;;;;;5057312;28;20025;-72
2021/03/02 10:29:27;;;;;;;9.13;5.80;;;20.70;37.30;;;;;;5057282;28;20036;-72
2021/03/02 10:31:53;;;;;;;5.80;4.72;;;20.80;36.00;;;;;;5055976;28;20357;-72
2021/03/02 10:34:19;;;;;;;5.53;4.70;;;20.50;36.10;;;;;;5056925;28;20028;-72
2021/03/02 10:36:51;;;;;;;6.95;4.70;;;20.20;37.40;;;;;;5057005;28;20406;-72
2021/03/02 10:39:17;;;;;;;9.15;4.65;;;20.20;35.30;;;;;;5056948;28;20033;-72
2021/03/02 10:41:44;;;;;;;7.75;5.05;;;20.50;36.30;;;;;;5056957;28;20439;-72
2021/03/02 10:44:11;;;;;;;8.20;4.55;;;20.40;36.60;;;;;;5056606;28;20028;-72
2021/03/02 10:46:37;;;;;;;7.32;5.43;;;20.20;34.60;;;;;;5056818;28;20108;-72
2021/03/02 10:49:03;;;;;;;6.50;5.03;;;20.30;34.60;;;;;;5055752;28;20029;-72
2021/03/02 10:51:30;;;;;;;8.90;5.13;;;20.20;36.40;;;;;;5056723;28;20066;-72
2021/03/02 10:53:56;;;;;;;6.93;5.15;;;20.00;36.40;;;;;;5056686;28;20025;-72
2021/03/02 10:56:22;;;;;;;8.10;5.13;;;20.00;36.90;;;;;;5056823;28;20028;-72
2021/03/02 10:58:48;;;;;;;7.88;4.80;;;19.90;37.50;;;;;;5056657;28;20032;-72
2021/03/02 11:01:17;;;;;;;6.00;5.15;;;19.70;35.10;;;;;;5056598;28;20021;-72
2021/03/02 11:03:44;;;;;;;9.23;4.90;;;19.90;36.00;;;;;;5056556;28;20033;-72
2021/03/02 11:06:13;;;;;;;5.68;4.50;;;20.10;35.90;;;;;;5056434;28;20412;-72
2021/03/02 11:08:39;;;;;;;6.25;4.38;;;19.90;35.30;;;;;;5056843;28;20032;-72
2021/03/02 11:11:05;;;;;;;6.35;4.88;;;20.00;38.30;;;;;;5056867;28;20432;-72
2021/03/02 11:13:31;;;;;;;6.13;5.00;;;20.10;35.10;;;;;;5055389;28;20029;-72
2021/03/02 11:15:57;;;;;;;6.28;4.50;;;20.20;37.20;;;;;;5056468;28;20451;-72
2021/03/02 11:18:22;;;;;;;6.95;4.97;;;20.10;36.60;;;;;;5056230;28;20056;-72
2021/03/02 11:20:48;;;;;;;6.80;4.82;;;20.20;35.40;;;;;;5056418;28;20074;-72
2021/03/02 11:23:14;;;;;;;5.40;4.28;;;20.10;35.20;;;;;;5055261;28;20056;-72
2021/03/02 11:25:41;;;;;;;5.85;4.53;;;19.90;34.80;;;;;;5056552;28;20032;-72
2021/03/02 11:28:08;;;;;;;8.10;3.90;;;20.00;34.70;;;;;;5056426;28;20025;-72
2021/03/02 11:30:34;;;;;;;9.35;6.25;;;20.10;35.00;;;;;;5056623;28;20348;-72
2021/03/02 11:33:00;;;;;;;5.63;4.50;;;20.40;36.80;;;;;;5056221;28;20032;-72
2021/03/02 11:35:26;;;;;;;6.82;4.75;;;20.60;35.80;;;;;;5056486;28;20032;-73
2021/03/02 11:37:52;;;;;;;7.35;5.18;;;20.80;35.10;;;;;;5056513;28;20052;-70
2021/03/02 11:40:19;;;;;;;7.80;5.10;;;20.70;33.90;;;;;;5056245;28;20029;-70
2021/03/02 11:42:46;;;;;;;5.93;4.90;;;20.00;38.80;;;;;;5056118;28;20413;-72
2021/03/02 11:45:13;;;;;;;8.68;5.15;;;19.90;35.80;;;;;;5056335;28;20345;-72
2021/03/02 11:47:39;;;;;;;7.25;4.85;;;19.50;37.30;;;;;;5057307;28;20372;-73
2021/03/02 11:50:07;;;;;;;6.78;4.60;;;19.60;37.50;;;;;;5060032;28;20413;-73
2021/03/02 11:52:33;;;;;;;6.88;5.15;;;19.60;38.90;;;;;;5059923;28;20025;-72
2021/03/02 11:54:58;;;;;;;7.53;5.07;;;19.80;36.80;;;;;;5060253;28;20028;-72
2021/03/02 11:57:25;;;;;;;8.57;5.47;;;19.70;37.10;;;;;;5059888;28;20029;-72
2021/03/02 11:59:51;;;;;;;10.63;5.15;;;19.90;35.90;;;;;;5059963;28;20029;-72
2021/03/02 12:02:17;;;;;;;8.07;6.07;;;20.20;36.70;;;;;;5060071;28;20033;-72
2021/03/02 12:04:43;;;;;;;7.93;5.65;;;20.20;37.00;;;;;;5059712;28;20074;-72
2021/03/02 12:07:10;;;;;;;8.88;5.40;;;20.10;38.50;;;;;;5059772;28;20119;-72
2021/03/02 12:09:37;;;;;;;12.13;6.65;;;20.00;38.90;;;;;;5059671;28;20017;-72
2021/03/02 12:12:04;;;;;;;10.10;6.80;;;19.90;36.70;;;;;;5059521;28;20021;-72
2021/03/02 12:14:30;;;;;;;9.07;6.28;;;19.70;37.20;;;;;;5059620;28;20044;-72
2021/03/02 12:16:57;;;;;;;7.30;5.78;;;19.60;38.10;;;;;;5059594;28;20060;-72
2021/03/02 12:19:23;;;;;;;8.25;5.95;;;19.60;37.30;;;;;;5059363;28;20049;-72
2021/03/02 12:21:48;;;;;;;7.90;6.03;;;19.60;38.00;;;;;;5059450;28;20033;-72
2021/03/02 12:24:14;;;;;;;13.80;6.90;;;19.50;38.50;;;;;;5059262;28;20419;-72
2021/03/02 12:26:40;;;;;;;7.68;6.28;;;19.10;40.20;;;;;;5059391;28;20029;-72
2021/03/02 12:29:07;;;;;;;7.65;6.32;;;18.90;40.90;;;;;;5059501;28;20021;-72
2021/03/02 12:31:33;;;;;;;9.13;6.07;;;18.70;39.20;;;;;;5059488;28;20039;-72
2021/03/02 12:34:00;;;;;;;11.50;6.65;;;18.60;40.20;;;;;;5059129;28;20048;-72
2021/03/02 12:36:26;;;;;;;11.55;7.00;;;18.60;41.40;;;;;;5059252;28;20025;-72
2021/03/02 12:38:52;;;;;;;11.32;7.07;;;18.60;38.50;;;;;;5059160;28;20474;-72
2021/03/02 12:41:18;;;;;;;11.20;6.65;;;18.30;40.40;;;;;;5058023;28;20056;-72
2021/03/02 12:43:43;;;;;;;12.45;6.85;;;18.10;40.00;;;;;;5059218;28;20096;-72
2021/03/02 12:46:09;;;;;;;9.35;7.03;;;18.00;40.10;;;;;;5058903;28;20332;-72
2021/03/02 12:48:35;;;;;;;10.93;6.97;;;17.60;40.50;;;;;;5058928;28;20539;-72
2021/03/02 12:51:01;;;;;;;11.10;7.18;;;17.20;40.90;;;;;;5059048;28;20021;-72
2021/03/02 12:53:27;;;;;;;10.73;6.80;;;17.10;44.00;;;;;;5058745;28;20021;-72
2021/03/02 12:55:52;;;;;;;12.48;8.93;;;17.00;43.10;;;;;;5059142;28;20096;-72
2021/03/02 12:58:18;;;;;;;8.77;7.28;;;16.80;42.00;;;;;;5057646;28;20325;-72
2021/03/02 13:00:44;;;;;;;10.60;7.55;;;16.20;42.40;;;;;;5059047;28;20056;-72